Time;durP1;ratioP1;P1;durP2;ratioP2;P2;SDS_P1;SDS_P2;PMS_P1;PMS_P2;Temp;Humidity;BMP_temperature;BMP_pressure;BME280_temperature;BME280_humidity;BME280_pressure;Samples;Min_cycle;Max_cycle;Signal;HPM_P1;HPM_P2
2022/05/26 00:01:23;;;;;;;19.85;18.42;;;14.10;99.90;;;;;;4995875;28;20095;-72
2022/05/26 00:03:51;;;;;;;20.30;19.00;;;14.10;99.90;;;;;;5003604;28;20113;-72
2022/05/26 00:06:20;;;;;;;20.02;18.40;;;14.00;99.90;;;;;;4989218;28;20046;-72
2022/05/26 00:08:48;;;;;;;20.20;18.98;;;14.00;99.90;;;;;;4984059;28;20078;-72
2022/05/26 00:11:19;;;;;;;19.75;18.63;;;14.00;99.90;;;;;;4982921;28;20051;-72
2022/05/26 00:13:46;;;;;;;19.98;18.52;;;14.00;99.90;;;;;;4989458;28;20153;-72
2022/05/26 00:16:13;;;;;;;19.83;18.52;;;14.00;99.90;;;;;;4986155;28;20050;-72
2022/05/26 00:18:40;;;;;;;20.05;18.73;;;14.00;99.90;;;;;;4982609;28;20126;-71
2022/05/26 00:21:07;;;;;;;21.08;19.48;;;14.00;99.90;;;;;;4984012;28;20093;-71
2022/05/26 00:23:34;;;;;;;20.15;18.90;;;14.00;99.90;;;;;;4984514;28;20202;-74
2022/05/26 00:26:01;;;;;;;19.85;18.70;;;14.00;99.90;;;;;;4983869;28;20043;-71
2022/05/26 00:28:28;;;;;;;20.20;19.00;;;13.90;99.90;;;;;;4994742;28;20085;-71
2022/05/26 00:30:54;;;;;;;20.65;19.23;;;13.90;99.90;;;;;;5010745;28;20061;-71
2022/05/26 00:33:21;;;;;;;19.92;18.73;;;13.80;99.90;;;;;;5008944;28;20053;-71
2022/05/26 00:35:48;;;;;;;21.20;19.48;;;13.80;99.90;;;;;;5005762;28;20072;-71
2022/05/26 00:38:14;;;;;;;20.05;18.58;;;13.90;99.90;;;;;;5000615;28;20082;-72
2022/05/26 00:40:43;;;;;;;20.40;19.02;;;13.80;99.90;;;;;;4971029;28;20063;-71
2022/05/26 00:43:10;;;;;;;21.05;19.50;;;13.80;99.90;;;;;;4986062;28;20249;-74
2022/05/26 00:45:44;;;;;;;21.40;19.73;;;13.80;99.90;;;;;;4989732;28;20472;-74
2022/05/26 00:48:14;;;;;;;20.42;19.15;;;13.90;99.90;;;;;;4988526;28;20085;-72
2022/05/26 00:51:00;;;;;;;20.60;19.08;;;13.80;99.90;;;;;;4988296;28;20054;-72
2022/05/26 00:53:27;;;;;;;;;;;13.80;99.90;;;;;;4987512;28;20054;-72
2022/05/26 00:56:01;;;;;;;20.42;19.08;;;13.80;99.90;;;;;;4982599;28;20047;-74
2022/05/26 00:58:35;;;;;;;21.05;19.23;;;13.90;99.90;;;;;;4975482;28;20043;-72
2022/05/26 01:01:10;;;;;;;19.73;18.42;;;13.90;99.90;;;;;;4987495;28;20077;-73
2022/05/26 01:03:42;;;;;;;20.27;18.50;;;13.90;99.90;;;;;;4988899;28;20270;-72
2022/05/26 01:06:21;;;;;;;19.75;18.63;;;13.80;99.90;;;;;;4988189;28;20124;-71
2022/05/26 01:09:02;;;;;;;20.83;19.30;;;13.90;99.90;;;;;;4986420;28;20050;-71
2022/05/26 01:11:35;;;;;;;19.20;18.05;;;13.90;99.90;;;;;;4988811;28;20312;-72
2022/05/26 01:14:06;;;;;;;20.92;18.92;;;13.90;99.90;;;;;;4992504;28;20141;-72
2022/05/26 01:16:41;;;;;;;20.25;18.73;;;13.90;99.90;;;;;;4984165;28;20105;-71
2022/05/26 01:19:26;;;;;;;20.65;18.88;;;13.90;99.90;;;;;;4986920;28;20328;-72
2022/05/26 01:22:10;;;;;;;21.58;19.70;;;13.80;99.90;;;;;;4988300;28;20074;-71
2022/05/26 01:24:55;;;;;;;20.57;19.23;;;13.80;99.90;;;;;;5007737;23;20108;-70
2022/05/26 01:27:36;;;;;;;21.35;19.73;;;13.80;99.90;;;;;;4985178;28;20046;-71
2022/05/26 01:30:20;;;;;;;20.48;19.05;;;13.80;99.90;;;;;;4996199;28;20046;-72
2022/05/26 01:33:07;;;;;;;20.73;19.50;;;13.80;99.90;;;;;;4984574;28;20479;-72
2022/05/26 01:35:41;;;;;;;20.58;19.30;;;13.80;99.90;;;;;;4983124;28;20529;-72
2022/05/26 01:38:36;;;;;;;21.48;19.85;;;13.80;99.90;;;;;;4986114;28;20108;-71
2022/05/26 01:41:48;;;;;;;20.55;19.15;;;13.80;99.90;;;;;;4966777;28;20125;-71
2022/05/26 01:44:39;;;;;;;20.15;18.90;;;13.80;99.90;;;;;;4983032;28;20488;-72
2022/05/26 01:47:13;;;;;;;21.38;20.00;;;13.80;99.90;;;;;;4986064;28;20197;-71
2022/05/26 01:49:55;;;;;;;19.88;18.67;;;13.80;99.90;;;;;;5002742;28;20595;-72
2022/05/26 01:52:31;;;;;;;20.38;19.02;;;13.80;99.90;;;;;;5006949;28;20073;-72
2022/05/26 01:55:19;;;;;;;21.55;19.80;;;13.80;99.90;;;;;;5007121;28;20127;-71
2022/05/26 01:58:12;;;;;;;20.67;19.38;;;13.80;99.90;;;;;;5007583;28;20049;-71
2022/05/26 02:00:39;;;;;;;21.02;19.60;;;13.80;99.90;;;;;;4985562;28;20145;-71
2022/05/26 02:03:13;;;;;;;20.33;19.02;;;13.70;99.90;;;;;;4986660;28;20109;-72
2022/05/26 02:05:49;;;;;;;20.10;19.00;;;13.80;99.90;;;;;;4985737;28;20116;-71
2022/05/26 02:08:23;;;;;;;20.88;19.27;;;13.70;99.90;;;;;;4985152;28;20062;-71
2022/05/26 02:10:56;;;;;;;19.65;18.25;;;13.70;99.90;;;;;;4966465;28;20086;-72
2022/05/26 02:13:33;;;;;;;20.13;18.70;;;13.70;99.90;;;;;;5014823;28;20049;-72
2022/05/26 02:16:08;;;;;;;20.88;19.20;;;13.70;99.90;;;;;;4986180;28;20073;-72
2022/05/26 02:18:41;;;;;;;20.48;18.98;;;13.70;99.90;;;;;;4983923;28;20057;-72
2022/05/26 02:21:17;;;;;;;19.80;18.58;;;13.70;99.90;;;;;;4967133;28;20056;-71
2022/05/26 02:24:00;;;;;;;20.23;18.80;;;13.60;99.90;;;;;;4967331;28;20485;-71
2022/05/26 02:26:28;;;;;;;20.58;18.83;;;13.70;99.90;;;;;;4985158;28;20126;-72
2022/05/26 02:31:42;;;;;;;19.70;18.27;;;13.60;99.90;;;;;;4994026;28;20039;-72
2022/05/26 02:34:11;;;;;;;20.23;18.48;;;13.60;99.90;;;;;;4986108;28;20050;-71
2022/05/26 02:36:41;;;;;;;19.67;18.25;;;13.50;99.90;;;;;;4986599;28;20042;-72
2022/05/26 02:39:08;;;;;;;19.17;17.67;;;13.50;99.90;;;;;;4984352;28;20145;-71
2022/05/26 02:41:36;;;;;;;19.80;18.20;;;13.50;99.90;;;;;;5002040;28;20077;-71
2022/05/26 02:44:04;;;;;;;20.08;18.38;;;13.50;99.90;;;;;;4991495;28;20548;-71
2022/05/26 02:46:57;;;;;;;20.42;18.50;;;13.50;99.90;;;;;;4986984;28;20517;-72
2022/05/26 02:49:40;;;;;;;19.65;17.83;;;13.50;99.90;;;;;;4987206;28;20497;-71
2022/05/26 02:52:13;;;;;;;20.20;18.33;;;13.40;99.90;;;;;;5016872;28;20137;-71
2022/05/26 02:54:40;;;;;;;21.10;18.77;;;13.50;99.90;;;;;;4985477;28;20081;-71
2022/05/26 02:57:12;;;;;;;19.23;17.83;;;13.40;99.90;;;;;;4986092;28;20602;-72
2022/05/26 02:59:53;;;;;;;19.80;18.02;;;13.50;99.90;;;;;;4990775;28;20046;-71
2022/05/26 03:02:45;;;;;;;19.77;18.23;;;13.50;99.90;;;;;;5003699;28;20172;-71
2022/05/26 03:05:19;;;;;;;19.33;17.83;;;13.50;99.90;;;;;;4983275;28;20156;-71
2022/05/26 03:07:50;;;;;;;18.85;17.52;;;13.40;99.90;;;;;;5003288;28;20049;-72
2022/05/26 03:10:25;;;;;;;19.45;17.92;;;13.40;99.90;;;;;;4986385;28;20074;-72
2022/05/26 03:12:54;;;;;;;19.08;17.67;;;13.40;99.90;;;;;;4983209;28;20050;-71
2022/05/26 03:15:22;;;;;;;19.05;17.38;;;13.30;99.90;;;;;;4983178;28;20526;-72
2022/05/26 03:17:49;;;;;;;20.10;18.60;;;13.30;99.90;;;;;;4985896;28;20062;-71
2022/05/26 03:20:16;;;;;;;18.95;17.67;;;13.30;99.90;;;;;;4985163;28;20074;-71
2022/05/26 03:22:43;;;;;;;19.95;18.55;;;13.20;99.90;;;;;;4985383;28;20376;-72
2022/05/26 03:25:10;;;;;;;18.45;17.08;;;13.30;99.90;;;;;;4984550;28;20536;-72
2022/05/26 03:27:38;;;;;;;19.65;17.98;;;13.30;99.90;;;;;;4984611;28;20397;-72
2022/05/26 03:30:06;;;;;;;19.10;17.75;;;13.30;99.90;;;;;;4992326;28;20827;-71
2022/05/26 03:32:32;;;;;;;19.55;17.92;;;13.20;99.90;;;;;;5001697;28;20077;-71
2022/05/26 03:43:17;;;;;;;19.48;17.80;;;13.30;99.90;;;;;;4987662;28;20112;-72
2022/05/26 03:45:45;;;;;;;19.02;17.70;;;13.20;99.90;;;;;;4995927;28;20050;-71
2022/05/26 03:48:11;;;;;;;19.48;18.17;;;13.30;99.90;;;;;;4990912;28;20053;-71
2022/05/26 03:50:39;;;;;;;20.17;18.23;;;13.30;99.90;;;;;;4985577;28;20570;-72
2022/05/26 03:53:06;;;;;;;18.75;17.42;;;13.30;99.90;;;;;;4992244;28;20551;-72
2022/05/26 03:55:33;;;;;;;18.67;16.67;;;13.30;99.90;;;;;;5003462;28;20046;-71
2022/05/26 03:58:01;;;;;;;19.83;18.08;;;13.30;99.90;;;;;;4994243;28;20099;-72
2022/05/26 04:00:28;;;;;;;20.35;18.42;;;13.30;99.90;;;;;;4992636;28;20046;-72
2022/05/26 04:02:54;;;;;;;18.77;17.20;;;13.30;99.90;;;;;;4991106;28;20049;-71
2022/05/26 04:05:22;;;;;;;18.70;17.40;;;13.30;99.90;;;;;;4990985;28;20615;-71
2022/05/26 04:07:49;;;;;;;19.20;17.63;;;13.40;99.90;;;;;;4982476;28;20525;-71
2022/05/26 04:10:16;;;;;;;19.10;17.75;;;13.40;99.90;;;;;;4984988;28;20090;-71
2022/05/26 04:12:42;;;;;;;18.00;16.90;;;13.30;99.90;;;;;;4982755;28;20420;-71
2022/05/26 04:15:11;;;;;;;19.63;18.02;;;13.40;99.90;;;;;;4983340;28;20061;-72
2022/05/26 04:17:38;;;;;;;19.92;18.25;;;13.30;99.90;;;;;;4991328;28;20201;-71
2022/05/26 04:20:07;;;;;;;19.55;18.00;;;13.40;99.90;;;;;;4985300;28;20105;-71
2022/05/26 04:22:34;;;;;;;20.50;18.98;;;13.30;99.90;;;;;;4983094;28;20051;-71
2022/05/26 04:25:01;;;;;;;20.35;18.60;;;13.40;99.90;;;;;;4990203;28;20050;-71
2022/05/26 04:27:30;;;;;;;20.08;18.42;;;13.40;99.90;;;;;;4983615;28;20566;-72
2022/05/26 04:29:57;;;;;;;19.92;18.20;;;13.40;99.90;;;;;;4997926;28;20073;-71
2022/05/26 04:32:26;;;;;;;20.50;19.00;;;13.40;99.90;;;;;;5000692;28;20077;-72
2022/05/26 04:34:53;;;;;;;21.08;19.58;;;13.30;99.90;;;;;;5003417;28;20049;-73
2022/05/26 04:37:21;;;;;;;20.17;18.48;;;13.30;99.90;;;;;;5002131;28;20421;-72
2022/05/26 04:39:50;;;;;;;20.50;18.88;;;13.30;99.90;;;;;;4988534;28;20505;-71
2022/05/26 04:42:18;;;;;;;20.63;18.67;;;13.30;99.90;;;;;;4996287;28;20112;-71
2022/05/26 04:44:46;;;;;;;20.35;18.35;;;13.20;99.90;;;;;;4991198;28;20105;-71
2022/05/26 04:47:14;;;;;;;20.88;18.58;;;13.30;99.90;;;;;;4982569;28;20161;-72
2022/05/26 04:49:41;;;;;;;19.48;17.65;;;13.20;99.90;;;;;;4987788;28;20063;-70
2022/05/26 04:52:14;;;;;;;19.33;17.58;;;13.10;99.90;;;;;;5006879;28;20046;-70
2022/05/26 04:54:42;;;;;;;19.23;16.83;;;13.00;99.90;;;;;;5011722;28;20042;-71
2022/05/26 04:57:09;;;;;;;19.92;18.02;;;13.00;99.90;;;;;;5024494;28;20049;-71
2022/05/26 04:59:36;;;;;;;20.27;18.17;;;13.00;99.90;;;;;;5013231;28;20050;-71
2022/05/26 05:02:04;;;;;;;20.45;18.45;;;12.90;99.90;;;;;;5016001;28;20045;-70
2022/05/26 05:04:31;;;;;;;22.30;19.48;;;12.90;99.90;;;;;;5013015;28;20049;-70
2022/05/26 05:06:58;;;;;;;22.00;18.25;;;12.80;99.90;;;;;;5016432;28;20042;-70
2022/05/26 05:09:25;;;;;;;23.95;19.23;;;12.80;99.90;;;;;;5019987;28;20054;-70
2022/05/26 05:11:52;;;;;;;22.42;18.52;;;12.70;99.90;;;;;;5015415;28;20073;-69
2022/05/26 05:14:19;;;;;;;23.08;18.80;;;12.60;99.90;;;;;;4991600;28;20311;-69
2022/05/26 05:16:46;;;;;;;27.15;18.60;;;12.60;99.90;;;;;;5002523;28;20520;-70
2022/05/26 05:19:18;;;;;;;24.73;18.65;;;12.70;99.90;;;;;;5007800;28;20145;-70
2022/05/26 05:21:48;;;;;;;21.92;17.35;;;12.60;99.90;;;;;;5006895;28;20100;-70
2022/05/26 05:24:22;;;;;;;25.88;17.92;;;12.60;99.90;;;;;;5005180;28;20531;-70
2022/05/26 05:26:52;;;;;;;25.85;18.77;;;12.50;99.90;;;;;;5005477;28;20049;-70
2022/05/26 05:29:23;;;;;;;23.67;18.17;;;12.40;99.90;;;;;;5008713;28;20045;-68
2022/05/26 05:31:55;;;;;;;22.33;17.38;;;12.40;99.90;;;;;;4994734;28;20074;-70
2022/05/26 05:34:31;;;;;;;26.75;18.55;;;12.40;99.90;;;;;;4988571;28;20420;-71
2022/05/26 05:36:59;;;;;;;27.33;18.35;;;12.40;99.90;;;;;;5005061;28;20054;-70
2022/05/26 05:39:26;;;;;;;29.17;18.15;;;12.40;99.90;;;;;;4999747;28;20057;-70
2022/05/26 05:41:56;;;;;;;31.13;20.33;;;12.30;99.90;;;;;;4987015;28;20073;-70
2022/05/26 05:44:23;;;;;;;30.27;20.38;;;12.30;99.90;;;;;;4990200;28;20056;-70
2022/05/26 05:46:53;;;;;;;40.70;24.25;;;12.30;99.90;;;;;;4996165;28;20100;-70
2022/05/26 05:49:22;;;;;;;29.40;20.77;;;12.30;99.90;;;;;;5006205;28;20530;-71
2022/05/26 05:51:49;;;;;;;32.20;22.45;;;12.30;99.90;;;;;;5005079;28;20057;-69
2022/05/26 05:54:17;;;;;;;29.05;22.83;;;12.30;99.90;;;;;;5006790;28;20139;-69
2022/05/26 05:56:44;;;;;;;35.03;21.55;;;12.30;99.90;;;;;;5000047;28;20069;-70
2022/05/26 05:59:11;;;;;;;32.83;19.70;;;12.30;99.90;;;;;;5023726;28;20500;-71
2022/05/26 06:01:38;;;;;;;30.88;21.92;;;12.30;99.90;;;;;;4997248;28;20062;-70
2022/05/26 06:04:05;;;;;;;32.97;20.52;;;12.40;99.90;;;;;;5003691;28;20049;-70
2022/05/26 06:06:40;;;;;;;27.90;19.20;;;12.50;99.90;;;;;;5003496;28;20364;-69
2022/05/26 06:09:09;;;;;;;35.30;20.70;;;12.50;99.90;;;;;;4995826;28;20058;-69
2022/05/26 06:11:36;;;;;;;33.88;19.38;;;12.50;99.90;;;;;;5016502;28;20088;-71
2022/05/26 06:14:03;;;;;;;25.98;19.63;;;12.50;99.90;;;;;;4985736;28;20141;-70
2022/05/26 06:16:30;;;;;;;31.83;19.00;;;12.60;99.90;;;;;;4985849;28;20448;-71
2022/05/26 06:18:57;;;;;;;27.55;19.20;;;12.60;99.90;;;;;;4986173;28;20081;-70
2022/05/26 06:21:24;;;;;;;29.27;18.58;;;12.60;99.90;;;;;;4985706;28;20051;-70
2022/05/26 06:23:53;;;;;;;31.13;19.52;;;12.60;99.90;;;;;;4985337;28;20050;-70
2022/05/26 06:26:20;;;;;;;34.33;20.95;;;12.70;99.90;;;;;;4986151;28;20062;-71
2022/05/26 06:31:32;;;;;;;29.63;17.55;;;12.70;99.90;;;;;;4987279;28;20042;-71
2022/05/26 06:39:30;;;;;;;32.30;18.40;;;12.90;99.90;;;;;;4986671;28;20134;-70
2022/05/26 06:42:06;;;;;;;29.88;18.67;;;12.90;99.90;;;;;;4985242;28;20050;-70
2022/05/26 06:44:43;;;;;;;29.42;18.52;;;12.90;99.90;;;;;;4986152;28;20548;-71
2022/05/26 06:47:16;;;;;;;32.92;20.48;;;13.00;99.90;;;;;;4984625;28;20116;-70
2022/05/26 06:49:43;;;;;;;27.77;19.50;;;13.10;99.90;;;;;;4985127;28;20085;-70
2022/05/26 06:52:11;;;;;;;33.40;21.70;;;13.10;99.90;;;;;;4985165;28;20463;-70
2022/05/26 06:54:41;;;;;;;28.85;18.70;;;13.20;99.90;;;;;;4997963;28;20157;-71
2022/05/26 06:57:09;;;;;;;26.88;19.08;;;13.30;99.90;;;;;;4991756;28;20096;-70
2022/05/26 06:59:37;;;;;;;27.02;19.13;;;13.30;99.90;;;;;;4999706;28;20077;-71
2022/05/26 07:02:06;;;;;;;32.05;20.15;;;13.30;99.90;;;;;;4995086;28;20096;-70
2022/05/26 07:04:33;;;;;;;34.42;21.48;;;13.30;99.90;;;;;;4992157;28;20050;-71
2022/05/26 07:07:01;;;;;;;32.05;21.90;;;13.30;99.90;;;;;;5016559;28;20322;-70
2022/05/26 07:09:28;;;;;;;30.35;21.83;;;13.40;99.90;;;;;;4996210;28;20133;-70
2022/05/26 07:11:55;;;;;;;30.52;22.95;;;13.30;99.90;;;;;;4986638;28;20120;-70
2022/05/26 07:14:22;;;;;;;32.28;20.55;;;13.40;99.90;;;;;;4985235;28;20053;-71
2022/05/26 07:16:48;;;;;;;29.33;21.75;;;13.60;99.90;;;;;;4984827;28;20070;-70
2022/05/26 07:19:17;;;;;;;32.65;20.90;;;13.70;99.90;;;;;;4984999;28;20113;-70
2022/05/26 07:21:49;;;;;;;32.58;21.35;;;13.60;99.90;;;;;;4985039;28;20124;-71
2022/05/26 07:24:18;;;;;;;34.63;22.77;;;13.60;99.90;;;;;;4999604;23;20046;-73
2022/05/26 07:26:46;;;;;;;37.25;24.15;;;13.70;99.90;;;;;;4999023;28;20203;-71
2022/05/26 07:29:13;;;;;;;34.67;24.23;;;13.70;99.90;;;;;;4997411;28;20078;-72
2022/05/26 07:31:40;;;;;;;34.85;25.75;;;13.50;99.90;;;;;;4995378;28;20057;-72
2022/05/26 07:34:15;;;;;;;37.13;25.33;;;13.70;99.90;;;;;;5023440;28;20057;-73
2022/05/26 07:42:16;;;;;;;43.00;28.52;;;14.10;99.90;;;;;;5007885;28;19929;-72
2022/05/26 07:44:46;;;;;;;45.30;29.10;;;14.20;99.90;;;;;;4986426;28;20054;-73
2022/05/26 07:47:12;;;;;;;42.45;29.02;;;14.30;99.90;;;;;;5002728;28;20072;-73
2022/05/26 07:49:42;;;;;;;41.17;28.77;;;14.30;99.90;;;;;;5003910;28;20050;-73
2022/05/26 07:52:12;;;;;;;37.25;29.13;;;14.30;99.90;;;;;;5003215;28;20073;-73
2022/05/26 07:54:38;;;;;;;39.38;29.38;;;14.30;99.90;;;;;;5002005;28;20083;-73
2022/05/26 07:57:06;;;;;;;38.97;28.25;;;14.20;99.90;;;;;;4984884;28;20140;-72
2022/05/26 07:59:34;;;;;;;40.38;29.48;;;14.30;99.90;;;;;;4992395;28;20693;-72
2022/05/26 08:02:01;;;;;;;43.03;27.90;;;14.30;99.90;;;;;;4990584;28;20060;-74
2022/05/26 08:04:27;;;;;;;40.95;29.92;;;14.30;99.90;;;;;;5017792;28;20092;-72
2022/05/26 08:06:54;;;;;;;30.83;27.40;;;14.40;99.90;;;;;;5002389;28;20453;-72
2022/05/26 08:09:21;;;;;;;33.25;29.25;;;14.50;99.90;;;;;;4985742;28;20034;-73
2022/05/26 08:11:48;;;;;;;35.25;29.63;;;14.80;99.90;;;;;;4985087;28;20253;-73
2022/05/26 08:14:16;;;;;;;34.58;29.85;;;15.10;99.90;;;;;;5004956;28;20042;-73
2022/05/26 08:16:42;;;;;;;36.25;30.38;;;15.40;99.90;;;;;;4987267;28;20159;-73
2022/05/26 08:19:09;;;;;;;35.42;30.23;;;15.50;99.90;;;;;;5001337;28;20057;-74
2022/05/26 08:21:36;;;;;;;33.08;29.48;;;15.60;99.90;;;;;;5001222;28;20185;-73
2022/05/26 08:24:04;;;;;;;32.92;29.60;;;15.30;99.90;;;;;;4998964;28;20057;-74
2022/05/26 08:26:31;;;;;;;32.88;29.23;;;15.20;99.90;;;;;;4984757;28;20073;-73
2022/05/26 08:28:58;;;;;;;37.28;30.63;;;15.30;99.90;;;;;;5008141;28;20294;-73
2022/05/26 08:31:26;;;;;;;35.22;31.67;;;15.30;99.90;;;;;;4995097;28;20255;-73
2022/05/26 08:33:53;;;;;;;36.30;32.42;;;15.20;99.90;;;;;;4997654;28;20049;-74
2022/05/26 08:36:24;;;;;;;35.05;31.05;;;15.10;99.90;;;;;;5004186;28;20073;-73
2022/05/26 08:38:52;;;;;;;39.58;32.28;;;15.00;99.90;;;;;;5013768;28;20152;-73
2022/05/26 08:41:25;;;;;;;38.42;33.75;;;14.90;99.90;;;;;;5001907;28;20456;-73
2022/05/26 08:44:02;;;;;;;38.28;34.28;;;14.90;99.90;;;;;;5007615;28;20527;-73
2022/05/26 08:46:42;;;;;;;45.83;33.72;;;14.80;99.90;;;;;;4986052;28;20073;-73
2022/05/26 08:49:08;;;;;;;38.50;32.67;;;14.80;99.90;;;;;;5021272;28;20046;-73
2022/05/26 08:51:52;;;;;;;45.28;35.53;;;14.60;99.90;;;;;;4985233;28;20449;-73
2022/05/26 08:54:22;;;;;;;42.70;31.95;;;14.60;99.90;;;;;;4968889;28;20050;-73
2022/05/26 08:56:50;;;;;;;38.60;34.03;;;14.70;99.90;;;;;;5002047;28;20050;-74
2022/05/26 08:59:22;;;;;;;44.13;34.00;;;14.80;99.90;;;;;;5012644;28;20160;-74
2022/05/26 09:01:48;;;;;;;38.42;32.22;;;15.00;99.90;;;;;;5015481;28;20063;-73
2022/05/26 09:04:16;;;;;;;40.45;36.13;;;15.00;99.90;;;;;;5007020;28;20046;-73
2022/05/26 09:15:11;;;;;;;38.83;34.33;;;15.30;99.90;;;;;;4986637;28;20065;-73
2022/05/26 09:17:38;;;;;;;37.35;33.67;;;15.30;99.90;;;;;;4987831;28;20081;-74
2022/05/26 09:20:26;;;;;;;38.22;33.17;;;15.20;99.90;;;;;;4989952;28;20069;-74
2022/05/26 09:22:52;;;;;;;39.75;35.50;;;15.10;99.90;;;;;;5022786;28;20344;-73
2022/05/26 09:25:46;;;;;;;38.72;34.47;;;15.00;99.90;;;;;;5004096;28;20509;-74
2022/05/26 09:28:26;;;;;;;38.00;33.70;;;15.10;99.90;;;;;;5005044;28;20377;-73
2022/05/26 09:30:53;;;;;;;43.13;36.92;;;15.40;99.90;;;;;;5008376;28;20064;-73
2022/05/26 09:33:29;;;;;;;39.22;35.00;;;15.40;99.90;;;;;;4991075;28;20052;-74
2022/05/26 09:36:24;;;;;;;41.58;37.33;;;15.80;99.90;;;;;;5003511;28;20049;-75
2022/05/26 09:38:52;;;;;;;42.55;36.67;;;16.10;99.90;;;;;;4992716;28;20570;-74
2022/05/26 09:41:19;;;;;;;43.60;38.70;;;16.40;99.90;;;;;;4999828;28;20081;-75
2022/05/26 09:43:53;;;;;;;42.53;38.45;;;16.30;99.90;;;;;;5013942;28;20523;-73
2022/05/26 09:46:24;;;;;;;42.53;38.20;;;16.30;99.90;;;;;;4989601;28;20053;-74
2022/05/26 09:48:56;;;;;;;41.17;37.03;;;16.20;99.90;;;;;;4991636;28;20076;-74
2022/05/26 09:51:40;;;;;;;40.55;36.67;;;16.00;99.90;;;;;;5002850;28;20061;-74
2022/05/26 09:54:39;;;;;;;40.20;35.90;;;16.10;99.90;;;;;;5000008;28;20046;-75
2022/05/26 09:57:28;;;;;;;39.83;35.85;;;15.90;99.90;;;;;;4969613;28;20120;-74
2022/05/26 09:59:54;;;;;;;43.42;38.90;;;15.70;99.90;;;;;;5003157;28;20417;-73
2022/05/26 10:02:26;;;;;;;43.88;37.00;;;15.60;99.90;;;;;;5003777;28;20042;-75
2022/05/26 10:05:05;;;;;;;43.47;38.88;;;16.00;99.90;;;;;;5011584;28;20132;-74
2022/05/26 10:07:59;;;;;;;40.53;36.47;;;16.20;99.90;;;;;;5021622;28;20504;-74
2022/05/26 10:10:41;;;;;;;43.47;39.13;;;16.30;99.90;;;;;;4998626;28;20104;-74
2022/05/26 10:13:18;;;;;;;43.90;39.22;;;16.40;99.90;;;;;;5022268;28;20062;-74
2022/05/26 10:15:55;;;;;;;42.58;38.58;;;16.40;99.90;;;;;;4983136;28;20246;-75
2022/05/26 10:18:43;;;;;;;41.97;37.97;;;16.20;99.90;;;;;;4993825;28;20075;-74
2022/05/26 10:21:10;;;;;;;41.13;37.30;;;16.00;99.90;;;;;;4983065;28;20136;-75
2022/05/26 10:23:49;;;;;;;41.15;37.03;;;15.90;99.90;;;;;;4985182;28;20438;-74
2022/05/26 10:26:46;;;;;;;40.20;36.17;;;15.80;99.90;;;;;;4984293;28;20107;-74
2022/05/26 10:29:38;;;;;;;39.17;35.70;;;15.80;99.90;;;;;;4999665;28;20160;-74
2022/05/26 10:32:08;;;;;;;39.72;35.90;;;16.30;99.90;;;;;;4987208;28;20729;-74
2022/05/26 10:34:53;;;;;;;40.03;36.38;;;16.90;99.90;;;;;;5018552;28;20108;-74
2022/05/26 10:37:37;;;;;;;41.03;37.28;;;17.40;99.90;;;;;;5002759;28;20056;-74
2022/05/26 10:40:36;;;;;;;42.72;38.53;;;17.40;99.90;;;;;;5002744;28;20056;-75
2022/05/26 10:43:41;;;;;;;39.33;35.58;;;17.20;99.90;;;;;;4970784;28;20038;-74
2022/05/26 10:46:09;;;;;;;42.65;38.47;;;16.70;99.90;;;;;;4989439;28;20038;-74
2022/05/26 10:48:58;;;;;;;40.50;37.03;;;16.50;99.90;;;;;;4996458;28;20095;-74
2022/05/26 10:51:42;;;;;;;43.05;38.55;;;16.40;99.90;;;;;;5006955;28;20041;-73
2022/05/26 10:54:15;;;;;;;40.97;36.72;;;16.40;99.90;;;;;;5002969;28;20045;-72
2022/05/26 10:56:54;;;;;;;38.17;34.40;;;16.30;99.90;;;;;;4985716;28;20046;-74
2022/05/26 10:59:40;;;;;;;38.45;34.72;;;16.10;99.90;;;;;;4983292;28;20057;-73
2022/05/26 11:02:29;;;;;;;39.67;35.65;;;15.90;99.90;;;;;;5010627;28;20073;-73
2022/05/26 11:05:08;;;;;;;37.45;33.60;;;15.90;99.90;;;;;;5001031;28;20136;-73
2022/05/26 11:07:40;;;;;;;37.80;34.13;;;16.00;99.90;;;;;;5003025;28;20609;-74
2022/05/26 11:10:24;;;;;;;38.05;34.35;;;16.20;99.90;;;;;;4985549;28;20127;-75
2022/05/26 11:13:15;;;;;;;37.33;33.70;;;16.20;99.90;;;;;;5006083;28;20042;-73
2022/05/26 11:18:53;;;;;;;38.67;34.83;;;16.00;99.90;;;;;;4940111;28;20138;-72
2022/05/26 11:21:21;;;;;;;37.22;33.33;;;15.90;99.90;;;;;;5006392;28;20112;-73
2022/05/26 11:23:49;;;;;;;38.35;34.80;;;15.90;99.90;;;;;;5000215;28;20104;-73
2022/05/26 11:26:37;;;;;;;37.38;33.95;;;15.80;99.90;;;;;;4988928;28;20053;-74
2022/05/26 11:29:23;;;;;;;35.47;32.40;;;15.90;99.90;;;;;;4999397;28;20131;-74
2022/05/26 11:36:07;;;;;;;35.75;32.47;;;16.30;99.90;;;;;;4992401;28;20574;-72
2022/05/26 11:38:06;;;;;;;35.67;32.72;;;16.50;99.90;;;;;;4981808;28;20144;-73
2022/05/26 11:40:47;;;;;;;34.58;31.65;;;17.00;99.90;;;;;;4990781;28;20724;-72
2022/05/26 11:43:28;;;;;;;32.63;29.80;;;17.70;99.90;;;;;;5011688;28;20054;-73
2022/05/26 11:45:57;;;;;;;33.42;30.40;;;18.30;99.90;;;;;;4961144;28;20046;-74
2022/05/26 11:48:30;;;;;;;32.35;29.98;;;18.10;99.90;;;;;;4985352;28;20077;-73
2022/05/26 11:51:09;;;;;;;32.60;29.90;;;17.70;99.90;;;;;;5009993;28;20053;-73
2022/05/26 11:53:41;;;;;;;33.92;30.98;;;17.40;99.90;;;;;;5000365;28;20046;-73
2022/05/26 11:56:28;;;;;;;34.85;31.52;;;17.20;99.90;;;;;;4995044;28;20137;-74
2022/05/26 11:59:17;;;;;;;36.45;32.83;;;16.80;99.90;;;;;;5002781;28;20061;-74
2022/05/26 12:01:47;;;;;;;35.45;32.15;;;16.50;99.90;;;;;;5021897;28;20099;-74
2022/05/26 12:04:27;;;;;;;32.38;29.67;;;16.40;99.90;;;;;;5003803;28;20080;-74
2022/05/26 12:07:01;;;;;;;33.40;30.65;;;16.40;99.90;;;;;;5020952;28;20046;-74
2022/05/26 12:09:46;;;;;;;32.20;29.60;;;16.50;99.90;;;;;;5022848;28;20118;-75
2022/05/26 12:12:16;;;;;;;32.03;29.20;;;16.70;99.90;;;;;;5002913;28;20145;-74
2022/05/26 12:14:55;;;;;;;31.35;28.80;;;17.30;99.90;;;;;;5016739;28;20080;-73
2022/05/26 12:17:44;;;;;;;31.92;29.30;;;17.70;99.90;;;;;;5018344;28;20099;-74
2022/05/26 12:20:30;;;;;;;31.17;28.50;;;17.60;99.90;;;;;;5001654;28;20145;-74
2022/05/26 12:23:03;;;;;;;32.42;29.83;;;17.30;99.90;;;;;;5001940;28;20072;-75
2022/05/26 12:25:30;;;;;;;31.48;29.08;;;17.20;99.90;;;;;;4998304;28;20449;-74
2022/05/26 12:28:16;;;;;;;30.98;28.65;;;17.20;99.90;;;;;;4988094;28;20050;-75
2022/05/26 12:30:45;;;;;;;;;;;17.20;99.90;;;;;;4994900;28;20068;-73
2022/05/26 12:33:19;;;;;;;31.00;28.50;;;16.90;99.90;;;;;;5005881;28;19921;-74
2022/05/26 12:36:26;;;;;;;32.20;29.38;;;16.70;99.90;;;;;;4992642;28;20129;-81
2022/05/26 12:39:17;;;;;;;32.58;29.83;;;16.50;99.90;;;;;;4988858;28;20065;-76
2022/05/26 12:42:20;;;;;;;31.88;29.25;;;16.40;99.90;;;;;;4973564;28;20050;-78
2022/05/26 12:45:22;;;;;;;30.02;27.50;;;16.60;99.90;;;;;;4975908;28;20094;-76
2022/05/26 12:48:08;;;;;;;30.40;27.60;;;16.60;99.90;;;;;;4981874;28;20050;-78
2022/05/26 12:50:42;;;;;;;32.10;29.23;;;16.90;99.90;;;;;;4986776;28;20107;-78
2022/05/26 12:53:36;;;;;;;27.63;25.52;;;17.30;99.90;;;;;;5009625;28;20099;-77
2022/05/26 12:56:10;;;;;;;28.35;26.00;;;17.90;99.90;;;;;;5025528;28;20099;-77
2022/05/26 12:58:44;;;;;;;28.38;25.75;;;18.10;99.90;;;;;;5011417;28;20219;-77
2022/05/26 13:01:15;;;;;;;28.50;26.25;;;18.40;99.90;;;;;;4993611;28;20061;-77
2022/05/26 13:03:48;;;;;;;29.20;26.80;;;18.50;99.90;;;;;;5027274;28;20088;-77
2022/05/26 13:06:21;;;;;;;28.15;25.95;;;18.10;99.90;;;;;;5009649;28;20131;-77
2022/05/26 13:08:58;;;;;;;26.27;24.25;;;17.80;99.90;;;;;;5028056;28;20042;-76
2022/05/26 13:11:32;;;;;;;27.85;25.25;;;17.40;99.90;;;;;;4993759;28;20053;-77
2022/05/26 13:14:04;;;;;;;26.77;24.65;;;17.30;99.90;;;;;;4993219;28;20096;-76
2022/05/26 13:16:36;;;;;;;27.73;25.02;;;17.40;99.90;;;;;;5004490;28;20045;-76
2022/05/26 13:19:18;;;;;;;27.10;24.95;;;17.50;99.90;;;;;;5027669;28;20475;-77
2022/05/26 13:21:50;;;;;;;27.52;25.48;;;17.50;99.90;;;;;;5019731;28;20046;-76
2022/05/26 13:27:17;;;;;;;26.73;24.63;;;17.20;99.90;;;;;;4965502;28;20117;-75
2022/05/26 13:29:47;;;;;;;27.83;25.67;;;17.10;99.90;;;;;;4953185;28;20106;-75
2022/05/26 13:35:19;;;;;;;25.85;23.95;;;17.60;99.90;;;;;;4968207;28;20050;-76
2022/05/26 13:37:46;;;;;;;27.65;25.35;;;18.60;99.90;;;;;;4943014;28;20057;-75
2022/05/26 13:40:17;;;;;;;27.85;25.25;;;18.50;99.90;;;;;;4936634;28;20043;-76
2022/05/26 13:42:47;;;;;;;26.40;23.98;;;18.50;99.90;;;;;;4950788;28;20046;-76
2022/05/26 13:45:29;;;;;;;24.63;22.92;;;18.50;99.90;;;;;;4958781;28;20077;-76